sensor_id;sensor_type;location;lat;lon;timestamp;P1;durP1;ratioP1;P2;durP2;ratioP2
81273;SDS011;70753;47.908;11.274;2023-08-31T00:01:47;5.20;;;1.60;;
81273;SDS011;70753;47.908;11.274;2023-08-31T00:04:13;5.53;;;1.75;;
81273;SDS011;70753;47.908;11.274;2023-08-31T00:06:38;2.92;;;1.40;;
81273;SDS011;70753;47.908;11.274;2023-08-31T00:09:04;4.00;;;1.70;;
81273;SDS011;70753;47.908;11.274;2023-08-31T00:11:31;4.10;;;1.60;;
81273;SDS011;70753;47.908;11.274;2023-08-31T00:13:56;2.67;;;1.60;;
81273;SDS011;70753;47.908;11.274;2023-08-31T00:16:24;3.10;;;1.50;;
81273;SDS011;70753;47.908;11.274;2023-08-31T00:18:49;4.22;;;1.67;;
81273;SDS011;70753;47.908;11.274;2023-08-31T00:21:15;3.75;;;1.42;;
81273;SDS011;70753;47.908;11.274;2023-08-31T00:23:40;2.97;;;1.50;;
81273;SDS011;70753;47.908;11.274;2023-08-31T00:26:05;4.38;;;1.73;;
81273;SDS011;70753;47.908;11.274;2023-08-31T00:28:33;3.20;;;1.75;;
81273;SDS011;70753;47.908;11.274;2023-08-31T00:31:00;4.45;;;1.60;;
81273;SDS011;70753;47.908;11.274;2023-08-31T00:33:26;3.42;;;1.55;;
81273;SDS011;70753;47.908;11.274;2023-08-31T00:35:51;3.95;;;1.42;;
81273;SDS011;70753;47.908;11.274;2023-08-31T00:38:17;3.55;;;1.40;;
81273;SDS011;70753;47.908;11.274;2023-08-31T00:40:42;2.90;;;1.30;;
81273;SDS011;70753;47.908;11.274;2023-08-31T00:43:08;3.42;;;1.50;;
81273;SDS011;70753;47.908;11.274;2023-08-31T00:45:35;4.85;;;1.50;;
81273;SDS011;70753;47.908;11.274;2023-08-31T00:48:00;3.33;;;1.58;;
81273;SDS011;70753;47.908;11.274;2023-08-31T00:50:26;3.08;;;1.60;;
81273;SDS011;70753;47.908;11.274;2023-08-31T00:52:51;3.30;;;1.52;;
81273;SDS011;70753;47.908;11.274;2023-08-31T00:55:17;2.55;;;1.30;;
81273;SDS011;70753;47.908;11.274;2023-08-31T00:57:42;3.70;;;1.50;;
81273;SDS011;70753;47.908;11.274;2023-08-31T01:00:08;3.45;;;1.55;;
81273;SDS011;70753;47.908;11.274;2023-08-31T01:02:37;4.65;;;1.63;;
81273;SDS011;70753;47.908;11.274;2023-08-31T01:05:13;2.95;;;1.55;;
81273;SDS011;70753;47.908;11.274;2023-08-31T01:07:59;3.35;;;1.75;;
81273;SDS011;70753;47.908;11.274;2023-08-31T01:10:32;4.63;;;1.60;;
81273;SDS011;70753;47.908;11.274;2023-08-31T01:13:07;5.25;;;1.63;;
81273;SDS011;70753;47.908;11.274;2023-08-31T01:15:36;4.10;;;2.00;;
81273;SDS011;70753;47.908;11.274;2023-08-31T01:18:05;3.15;;;1.48;;
81273;SDS011;70753;47.908;11.274;2023-08-31T01:20:34;3.50;;;1.55;;
81273;SDS011;70753;47.908;11.274;2023-08-31T01:23:04;5.50;;;1.70;;
81273;SDS011;70753;47.908;11.274;2023-08-31T01:25:36;5.35;;;1.48;;
81273;SDS011;70753;47.908;11.274;2023-08-31T01:28:02;3.55;;;1.58;;
81273;SDS011;70753;47.908;11.274;2023-08-31T01:30:29;3.20;;;1.70;;
81273;SDS011;70753;47.908;11.274;2023-08-31T01:32:54;3.83;;;1.40;;
81273;SDS011;70753;47.908;11.274;2023-08-31T01:35:20;4.25;;;1.60;;
81273;SDS011;70753;47.908;11.274;2023-08-31T01:37:47;4.32;;;1.75;;
81273;SDS011;70753;47.908;11.274;2023-08-31T01:40:20;3.10;;;1.52;;
81273;SDS011;70753;47.908;11.274;2023-08-31T01:42:51;3.03;;;1.67;;
81273;SDS011;70753;47.908;11.274;2023-08-31T01:45:19;3.70;;;1.65;;
81273;SDS011;70753;47.908;11.274;2023-08-31T01:47:45;3.67;;;1.73;;
81273;SDS011;70753;47.908;11.274;2023-08-31T01:50:11;3.72;;;1.73;;
81273;SDS011;70753;47.908;11.274;2023-08-31T01:52:37;3.85;;;1.70;;
81273;SDS011;70753;47.908;11.274;2023-08-31T01:55:02;3.25;;;1.60;;
81273;SDS011;70753;47.908;11.274;2023-08-31T01:57:28;3.53;;;1.60;;
81273;SDS011;70753;47.908;11.274;2023-08-31T01:59:55;3.70;;;1.58;;
81273;SDS011;70753;47.908;11.274;2023-08-31T02:02:22;3.45;;;1.52;;
81273;SDS011;70753;47.908;11.274;2023-08-31T02:04:47;4.07;;;1.58;;
81273;SDS011;70753;47.908;11.274;2023-08-31T02:07:13;4.25;;;1.88;;
81273;SDS011;70753;47.908;11.274;2023-08-31T02:09:38;6.25;;;1.70;;
81273;SDS011;70753;47.908;11.274;2023-08-31T02:12:04;3.15;;;1.35;;
81273;SDS011;70753;47.908;11.274;2023-08-31T02:14:29;3.67;;;1.50;;
81273;SDS011;70753;47.908;11.274;2023-08-31T02:16:59;3.28;;;1.60;;
81273;SDS011;70753;47.908;11.274;2023-08-31T02:19:25;3.63;;;1.50;;
81273;SDS011;70753;47.908;11.274;2023-08-31T02:21:50;3.15;;;1.52;;
81273;SDS011;70753;47.908;11.274;2023-08-31T02:24:15;3.05;;;1.40;;
81273;SDS011;70753;47.908;11.274;2023-08-31T02:26:41;3.78;;;1.60;;
81273;SDS011;70753;47.908;11.274;2023-08-31T02:29:06;3.25;;;1.40;;
81273;SDS011;70753;47.908;11.274;2023-08-31T02:31:31;3.05;;;1.45;;
81273;SDS011;70753;47.908;11.274;2023-08-31T02:33:58;3.33;;;1.70;;
81273;SDS011;70753;47.908;11.274;2023-08-31T02:36:24;2.78;;;1.40;;
81273;SDS011;70753;47.908;11.274;2023-08-31T02:38:49;3.25;;;1.65;;
81273;SDS011;70753;47.908;11.274;2023-08-31T02:41:14;3.42;;;1.45;;
81273;SDS011;70753;47.908;11.274;2023-08-31T02:43:40;3.03;;;1.50;;
81273;SDS011;70753;47.908;11.274;2023-08-31T02:46:05;6.00;;;1.70;;
81273;SDS011;70753;47.908;11.274;2023-08-31T02:48:32;3.17;;;1.58;;
81273;SDS011;70753;47.908;11.274;2023-08-31T02:53:42;3.35;;;1.40;;
81273;SDS011;70753;47.908;11.274;2023-08-31T02:56:08;3.22;;;1.50;;
81273;SDS011;70753;47.908;11.274;2023-08-31T02:58:33;5.50;;;1.60;;
81273;SDS011;70753;47.908;11.274;2023-08-31T03:01:06;2.70;;;1.45;;
81273;SDS011;70753;47.908;11.274;2023-08-31T03:03:32;2.55;;;1.35;;
81273;SDS011;70753;47.908;11.274;2023-08-31T03:05:58;3.30;;;1.40;;
81273;SDS011;70753;47.908;11.274;2023-08-31T03:08:24;8.45;;;1.63;;
81273;SDS011;70753;47.908;11.274;2023-08-31T03:10:51;3.92;;;1.55;;
81273;SDS011;70753;47.908;11.274;2023-08-31T03:13:16;3.80;;;1.70;;
81273;SDS011;70753;47.908;11.274;2023-08-31T03:15:42;3.63;;;1.80;;
81273;SDS011;70753;47.908;11.274;2023-08-31T03:18:07;3.20;;;1.67;;
81273;SDS011;70753;47.908;11.274;2023-08-31T03:20:33;3.58;;;1.60;;
81273;SDS011;70753;47.908;11.274;2023-08-31T03:22:58;4.07;;;1.52;;
81273;SDS011;70753;47.908;11.274;2023-08-31T03:25:26;3.70;;;1.90;;
81273;SDS011;70753;47.908;11.274;2023-08-31T03:27:53;4.63;;;2.53;;
81273;SDS011;70753;47.908;11.274;2023-08-31T03:30:18;4.63;;;2.30;;
81273;SDS011;70753;47.908;11.274;2023-08-31T03:32:44;3.80;;;1.85;;
81273;SDS011;70753;47.908;11.274;2023-08-31T03:35:12;3.60;;;1.70;;
81273;SDS011;70753;47.908;11.274;2023-08-31T03:37:37;3.67;;;1.90;;
81273;SDS011;70753;47.908;11.274;2023-08-31T03:40:03;5.45;;;2.35;;
81273;SDS011;70753;47.908;11.274;2023-08-31T03:42:31;4.38;;;2.00;;
81273;SDS011;70753;47.908;11.274;2023-08-31T03:44:56;5.07;;;2.40;;
81273;SDS011;70753;47.908;11.274;2023-08-31T03:47:22;4.28;;;2.10;;
81273;SDS011;70753;47.908;11.274;2023-08-31T03:49:47;6.18;;;2.20;;
81273;SDS011;70753;47.908;11.274;2023-08-31T03:52:12;4.05;;;2.38;;
81273;SDS011;70753;47.908;11.274;2023-08-31T03:54:38;4.20;;;2.30;;
81273;SDS011;70753;47.908;11.274;2023-08-31T03:57:03;4.22;;;2.17;;
81273;SDS011;70753;47.908;11.274;2023-08-31T03:59:30;3.72;;;2.20;;
81273;SDS011;70753;47.908;11.274;2023-08-31T04:01:56;3.72;;;1.88;;
81273;SDS011;70753;47.908;11.274;2023-08-31T04:04:21;6.28;;;2.10;;
81273;SDS011;70753;47.908;11.274;2023-08-31T04:06:46;3.70;;;1.88;;
81273;SDS011;70753;47.908;11.274;2023-08-31T04:09:13;4.68;;;2.28;;
81273;SDS011;70753;47.908;11.274;2023-08-31T04:11:39;4.35;;;2.30;;
81273;SDS011;70753;47.908;11.274;2023-08-31T04:14:05;4.05;;;1.95;;
81273;SDS011;70753;47.908;11.274;2023-08-31T04:16:32;4.70;;;1.90;;
81273;SDS011;70753;47.908;11.274;2023-08-31T04:18:57;3.92;;;2.08;;
81273;SDS011;70753;47.908;11.274;2023-08-31T04:21:23;4.07;;;1.85;;
81273;SDS011;70753;47.908;11.274;2023-08-31T04:23:49;4.13;;;2.13;;
81273;SDS011;70753;47.908;11.274;2023-08-31T04:26:14;4.93;;;1.92;;
81273;SDS011;70753;47.908;11.274;2023-08-31T04:28:41;6.13;;;2.80;;
81273;SDS011;70753;47.908;11.274;2023-08-31T04:31:07;3.55;;;1.48;;
81273;SDS011;70753;47.908;11.274;2023-08-31T04:33:35;3.30;;;1.77;;
81273;SDS011;70753;47.908;11.274;2023-08-31T04:36:01;4.45;;;1.75;;
81273;SDS011;70753;47.908;11.274;2023-08-31T04:38:27;5.10;;;1.83;;
81273;SDS011;70753;47.908;11.274;2023-08-31T04:40:52;4.70;;;2.22;;
81273;SDS011;70753;47.908;11.274;2023-08-31T04:43:17;3.97;;;2.00;;
81273;SDS011;70753;47.908;11.274;2023-08-31T04:45:43;3.72;;;1.80;;
81273;SDS011;70753;47.908;11.274;2023-08-31T04:48:08;4.65;;;1.98;;
81273;SDS011;70753;47.908;11.274;2023-08-31T04:50:35;3.45;;;1.55;;
81273;SDS011;70753;47.908;11.274;2023-08-31T04:53:01;3.30;;;1.75;;
81273;SDS011;70753;47.908;11.274;2023-08-31T04:55:26;4.68;;;2.25;;
81273;SDS011;70753;47.908;11.274;2023-08-31T04:57:51;3.55;;;1.70;;
81273;SDS011;70753;47.908;11.274;2023-08-31T05:00:17;4.20;;;1.75;;
81273;SDS011;70753;47.908;11.274;2023-08-31T05:02:43;6.90;;;3.25;;
81273;SDS011;70753;47.908;11.274;2023-08-31T05:05:08;8.82;;;3.30;;
81273;SDS011;70753;47.908;11.274;2023-08-31T05:07:36;8.43;;;3.30;;
81273;SDS011;70753;47.908;11.274;2023-08-31T05:10:01;3.25;;;1.65;;
81273;SDS011;70753;47.908;11.274;2023-08-31T05:12:28;3.50;;;1.60;;
81273;SDS011;70753;47.908;11.274;2023-08-31T05:14:54;4.07;;;1.77;;
81273;SDS011;70753;47.908;11.274;2023-08-31T05:17:19;4.25;;;2.10;;
81273;SDS011;70753;47.908;11.274;2023-08-31T05:19:46;3.55;;;1.70;;
81273;SDS011;70753;47.908;11.274;2023-08-31T05:22:11;3.38;;;1.80;;
81273;SDS011;70753;47.908;11.274;2023-08-31T05:24:38;3.10;;;1.60;;
81273;SDS011;70753;47.908;11.274;2023-08-31T05:27:04;4.22;;;2.03;;
81273;SDS011;70753;47.908;11.274;2023-08-31T05:29:29;4.40;;;1.83;;
81273;SDS011;70753;47.908;11.274;2023-08-31T05:31:55;4.30;;;1.77;;
81273;SDS011;70753;47.908;11.274;2023-08-31T05:34:21;3.08;;;1.63;;
81273;SDS011;70753;47.908;11.274;2023-08-31T05:36:47;4.07;;;1.85;;
81273;SDS011;70753;47.908;11.274;2023-08-31T05:39:12;4.07;;;2.00;;
81273;SDS011;70753;47.908;11.274;2023-08-31T05:41:41;5.30;;;2.00;;
81273;SDS011;70753;47.908;11.274;2023-08-31T05:44:06;3.50;;;1.70;;
81273;SDS011;70753;47.908;11.274;2023-08-31T05:46:31;5.03;;;1.90;;
81273;SDS011;70753;47.908;11.274;2023-08-31T05:48:57;3.47;;;1.85;;
81273;SDS011;70753;47.908;11.274;2023-08-31T05:51:23;3.92;;;2.05;;
81273;SDS011;70753;47.908;11.274;2023-08-31T05:53:49;4.78;;;1.98;;
81273;SDS011;70753;47.908;11.274;2023-08-31T05:56:14;4.13;;;2.00;;
81273;SDS011;70753;47.908;11.274;2023-08-31T05:58:41;4.90;;;2.28;;
81273;SDS011;70753;47.908;11.274;2023-08-31T06:01:06;3.60;;;2.00;;
81273;SDS011;70753;47.908;11.274;2023-08-31T06:03:32;3.90;;;1.98;;
81273;SDS011;70753;47.908;11.274;2023-08-31T06:05:58;3.42;;;1.90;;
81273;SDS011;70753;47.908;11.274;2023-08-31T06:08:24;3.70;;;1.80;;
81273;SDS011;70753;47.908;11.274;2023-08-31T06:10:50;5.38;;;2.20;;
81273;SDS011;70753;47.908;11.274;2023-08-31T06:13:16;5.68;;;2.03;;
81273;SDS011;70753;47.908;11.274;2023-08-31T06:15:43;4.10;;;2.08;;
81273;SDS011;70753;47.908;11.274;2023-08-31T06:18:08;4.97;;;2.47;;
81273;SDS011;70753;47.908;11.274;2023-08-31T06:20:33;4.10;;;2.15;;
81273;SDS011;70753;47.908;11.274;2023-08-31T06:22:59;4.85;;;2.33;;
81273;SDS011;70753;47.908;11.274;2023-08-31T06:25:24;4.35;;;2.10;;
81273;SDS011;70753;47.908;11.274;2023-08-31T06:27:50;4.45;;;2.20;;
81273;SDS011;70753;47.908;11.274;2023-08-31T06:30:16;4.13;;;1.95;;
81273;SDS011;70753;47.908;11.274;2023-08-31T06:32:43;5.50;;;2.60;;
81273;SDS011;70753;47.908;11.274;2023-08-31T06:35:10;4.55;;;2.50;;
81273;SDS011;70753;47.908;11.274;2023-08-31T06:37:35;4.95;;;2.00;;
81273;SDS011;70753;47.908;11.274;2023-08-31T06:40:00;4.90;;;2.08;;
81273;SDS011;70753;47.908;11.274;2023-08-31T06:42:26;3.85;;;1.92;;
81273;SDS011;70753;47.908;11.274;2023-08-31T06:44:51;4.15;;;2.03;;
81273;SDS011;70753;47.908;11.274;2023-08-31T06:47:17;4.28;;;2.15;;
81273;SDS011;70753;47.908;11.274;2023-08-31T06:49:44;4.10;;;2.03;;
81273;SDS011;70753;47.908;11.274;2023-08-31T06:52:10;4.88;;;2.28;;
81273;SDS011;70753;47.908;11.274;2023-08-31T06:54:35;4.30;;;2.10;;
81273;SDS011;70753;47.908;11.274;2023-08-31T06:57:01;4.93;;;1.98;;
81273;SDS011;70753;47.908;11.274;2023-08-31T06:59:26;4.47;;;2.30;;
81273;SDS011;70753;47.908;11.274;2023-08-31T07:01:52;4.35;;;1.95;;
81273;SDS011;70753;47.908;11.274;2023-08-31T07:04:17;4.15;;;2.15;;
81273;SDS011;70753;47.908;11.274;2023-08-31T07:06:44;4.13;;;2.05;;
81273;SDS011;70753;47.908;11.274;2023-08-31T07:09:09;7.20;;;2.30;;
81273;SDS011;70753;47.908;11.274;2023-08-31T07:11:35;5.55;;;2.30;;
81273;SDS011;70753;47.908;11.274;2023-08-31T07:14:01;4.47;;;2.33;;
81273;SDS011;70753;47.908;11.274;2023-08-31T07:16:26;4.25;;;2.40;;
81273;SDS011;70753;47.908;11.274;2023-08-31T07:18:53;4.10;;;2.03;;
81273;SDS011;70753;47.908;11.274;2023-08-31T07:21:18;4.90;;;2.25;;
81273;SDS011;70753;47.908;11.274;2023-08-31T07:23:45;4.97;;;2.25;;
81273;SDS011;70753;47.908;11.274;2023-08-31T07:26:10;4.45;;;2.30;;
81273;SDS011;70753;47.908;11.274;2023-08-31T07:28:36;4.60;;;2.20;;
81273;SDS011;70753;47.908;11.274;2023-08-31T07:31:01;8.07;;;2.58;;
81273;SDS011;70753;47.908;11.274;2023-08-31T07:33:27;5.38;;;2.80;;
81273;SDS011;70753;47.908;11.274;2023-08-31T07:35:53;4.40;;;2.47;;
81273;SDS011;70753;47.908;11.274;2023-08-31T07:38:18;5.97;;;3.00;;
81273;SDS011;70753;47.908;11.274;2023-08-31T07:40:45;4.90;;;2.47;;
81273;SDS011;70753;47.908;11.274;2023-08-31T07:43:11;6.00;;;2.60;;
81273;SDS011;70753;47.908;11.274;2023-08-31T07:45:36;4.22;;;2.30;;
81273;SDS011;70753;47.908;11.274;2023-08-31T07:48:02;4.75;;;2.60;;
81273;SDS011;70753;47.908;11.274;2023-08-31T07:50:27;5.32;;;2.42;;
81273;SDS011;70753;47.908;11.274;2023-08-31T07:52:53;4.45;;;2.40;;
81273;SDS011;70753;47.908;11.274;2023-08-31T07:55:19;6.05;;;3.08;;
81273;SDS011;70753;47.908;11.274;2023-08-31T07:57:45;3.60;;;2.10;;
81273;SDS011;70753;47.908;11.274;2023-08-31T08:00:11;4.30;;;2.50;;
81273;SDS011;70753;47.908;11.274;2023-08-31T08:02:38;5.93;;;3.08;;
81273;SDS011;70753;47.908;11.274;2023-08-31T08:05:04;4.30;;;2.33;;
81273;SDS011;70753;47.908;11.274;2023-08-31T08:07:30;7.00;;;2.70;;
81273;SDS011;70753;47.908;11.274;2023-08-31T08:09:55;4.32;;;2.30;;
81273;SDS011;70753;47.908;11.274;2023-08-31T08:12:21;5.35;;;2.33;;
81273;SDS011;70753;47.908;11.274;2023-08-31T08:14:48;4.18;;;2.47;;
81273;SDS011;70753;47.908;11.274;2023-08-31T08:17:13;4.78;;;2.35;;
81273;SDS011;70753;47.908;11.274;2023-08-31T08:19:39;5.28;;;2.33;;
81273;SDS011;70753;47.908;11.274;2023-08-31T08:22:04;5.38;;;2.40;;
81273;SDS011;70753;47.908;11.274;2023-08-31T08:24:30;4.13;;;2.28;;
81273;SDS011;70753;47.908;11.274;2023-08-31T08:26:55;4.38;;;2.33;;
81273;SDS011;70753;47.908;11.274;2023-08-31T08:29:21;4.45;;;2.65;;
81273;SDS011;70753;47.908;11.274;2023-08-31T08:31:48;4.75;;;1.80;;
81273;SDS011;70753;47.908;11.274;2023-08-31T08:34:14;4.05;;;1.95;;
81273;SDS011;70753;47.908;11.274;2023-08-31T08:36:39;3.90;;;1.75;;
81273;SDS011;70753;47.908;11.274;2023-08-31T08:39:04;3.15;;;1.70;;
81273;SDS011;70753;47.908;11.274;2023-08-31T08:41:30;4.55;;;2.10;;
81273;SDS011;70753;47.908;11.274;2023-08-31T08:44:00;4.00;;;1.92;;
81273;SDS011;70753;47.908;11.274;2023-08-31T08:46:27;3.47;;;1.83;;
81273;SDS011;70753;47.908;11.274;2023-08-31T08:48:54;3.30;;;1.60;;
81273;SDS011;70753;47.908;11.274;2023-08-31T08:51:20;4.03;;;1.85;;
81273;SDS011;70753;47.908;11.274;2023-08-31T08:53:46;3.63;;;1.83;;
81273;SDS011;70753;47.908;11.274;2023-08-31T08:56:15;3.53;;;1.75;;
81273;SDS011;70753;47.908;11.274;2023-08-31T08:58:40;4.50;;;1.70;;
81273;SDS011;70753;47.908;11.274;2023-08-31T09:01:05;3.80;;;1.95;;
81273;SDS011;70753;47.908;11.274;2023-08-31T09:03:32;3.38;;;1.60;;
81273;SDS011;70753;47.908;11.274;2023-08-31T09:06:01;3.65;;;1.70;;
81273;SDS011;70753;47.908;11.274;2023-08-31T09:08:27;3.47;;;1.80;;
81273;SDS011;70753;47.908;11.274;2023-08-31T09:10:55;3.22;;;1.70;;
81273;SDS011;70753;47.908;11.274;2023-08-31T09:13:21;3.00;;;1.50;;
81273;SDS011;70753;47.908;11.274;2023-08-31T09:15:51;3.45;;;1.60;;
81273;SDS011;70753;47.908;11.274;2023-08-31T09:18:22;3.50;;;1.63;;
81273;SDS011;70753;47.908;11.274;2023-08-31T09:20:48;3.95;;;1.60;;
81273;SDS011;70753;47.908;11.274;2023-08-31T09:23:16;3.58;;;1.60;;
81273;SDS011;70753;47.908;11.274;2023-08-31T09:25:42;3.42;;;1.65;;
81273;SDS011;70753;47.908;11.274;2023-08-31T09:28:09;3.75;;;2.03;;
81273;SDS011;70753;47.908;11.274;2023-08-31T09:30:34;2.90;;;1.30;;
81273;SDS011;70753;47.908;11.274;2023-08-31T09:33:00;4.18;;;1.75;;
81273;SDS011;70753;47.908;11.274;2023-08-31T09:35:27;3.42;;;1.45;;
81273;SDS011;70753;47.908;11.274;2023-08-31T09:37:56;3.35;;;1.30;;
81273;SDS011;70753;47.908;11.274;2023-08-31T09:40:23;2.83;;;1.30;;
81273;SDS011;70753;47.908;11.274;2023-08-31T09:42:49;3.17;;;1.45;;
81273;SDS011;70753;47.908;11.274;2023-08-31T09:45:16;3.95;;;1.50;;
81273;SDS011;70753;47.908;11.274;2023-08-31T09:47:42;2.90;;;1.30;;
81273;SDS011;70753;47.908;11.274;2023-08-31T09:50:08;4.57;;;1.70;;
81273;SDS011;70753;47.908;11.274;2023-08-31T09:52:35;4.15;;;1.60;;
81273;SDS011;70753;47.908;11.274;2023-08-31T09:55:02;3.15;;;1.50;;
81273;SDS011;70753;47.908;11.274;2023-08-31T09:57:32;3.10;;;1.40;;
81273;SDS011;70753;47.908;11.274;2023-08-31T09:59:58;3.13;;;1.20;;
81273;SDS011;70753;47.908;11.274;2023-08-31T10:02:24;3.78;;;1.40;;
81273;SDS011;70753;47.908;11.274;2023-08-31T10:04:53;4.18;;;2.25;;
81273;SDS011;70753;47.908;11.274;2023-08-31T10:07:19;3.55;;;1.30;;
81273;SDS011;70753;47.908;11.274;2023-08-31T10:09:46;3.13;;;1.33;;
81273;SDS011;70753;47.908;11.274;2023-08-31T10:12:11;4.38;;;1.33;;
81273;SDS011;70753;47.908;11.274;2023-08-31T10:14:40;3.00;;;1.30;;
81273;SDS011;70753;47.908;11.274;2023-08-31T10:17:06;3.83;;;1.40;;
81273;SDS011;70753;47.908;11.274;2023-08-31T10:19:31;4.47;;;1.90;;
81273;SDS011;70753;47.908;11.274;2023-08-31T10:21:57;3.10;;;1.20;;
81273;SDS011;70753;47.908;11.274;2023-08-31T10:27:21;4.45;;;1.50;;
81273;SDS011;70753;47.908;11.274;2023-08-31T10:29:48;2.95;;;1.10;;
81273;SDS011;70753;47.908;11.274;2023-08-31T10:32:16;3.42;;;1.00;;
81273;SDS011;70753;47.908;11.274;2023-08-31T10:34:42;3.95;;;1.10;;
81273;SDS011;70753;47.908;11.274;2023-08-31T10:37:19;3.70;;;1.27;;
81273;SDS011;70753;47.908;11.274;2023-08-31T10:39:46;2.70;;;1.10;;
81273;SDS011;70753;47.908;11.274;2023-08-31T10:42:11;2.53;;;1.13;;
81273;SDS011;70753;47.908;11.274;2023-08-31T10:44:36;3.17;;;1.10;;
81273;SDS011;70753;47.908;11.274;2023-08-31T10:47:04;3.92;;;1.48;;
81273;SDS011;70753;47.908;11.274;2023-08-31T10:49:32;3.28;;;1.20;;
81273;SDS011;70753;47.908;11.274;2023-08-31T10:52:14;3.65;;;1.50;;
81273;SDS011;70753;47.908;11.274;2023-08-31T10:54:40;4.43;;;1.55;;
81273;SDS011;70753;47.908;11.274;2023-08-31T10:57:06;3.28;;;1.20;;
81273;SDS011;70753;47.908;11.274;2023-08-31T10:59:41;3.40;;;1.20;;
81273;SDS011;70753;47.908;11.274;2023-08-31T11:02:09;4.32;;;1.58;;
81273;SDS011;70753;47.908;11.274;2023-08-31T11:07:19;3.58;;;1.30;;
81273;SDS011;70753;47.908;11.274;2023-08-31T11:09:48;3.00;;;1.30;;
81273;SDS011;70753;47.908;11.274;2023-08-31T11:12:14;5.18;;;1.45;;
81273;SDS011;70753;47.908;11.274;2023-08-31T11:14:40;4.53;;;1.30;;
81273;SDS011;70753;47.908;11.274;2023-08-31T11:17:06;3.50;;;1.40;;
81273;SDS011;70753;47.908;11.274;2023-08-31T11:19:33;3.85;;;1.50;;
81273;SDS011;70753;47.908;11.274;2023-08-31T11:22:00;5.15;;;1.73;;
81273;SDS011;70753;47.908;11.274;2023-08-31T11:24:26;3.47;;;1.40;;
81273;SDS011;70753;47.908;11.274;2023-08-31T11:26:52;5.30;;;1.40;;
81273;SDS011;70753;47.908;11.274;2023-08-31T11:29:18;4.18;;;1.60;;
81273;SDS011;70753;47.908;11.274;2023-08-31T11:31:43;3.80;;;1.38;;
81273;SDS011;70753;47.908;11.274;2023-08-31T11:34:11;3.20;;;1.25;;
81273;SDS011;70753;47.908;11.274;2023-08-31T11:36:39;7.10;;;1.50;;
81273;SDS011;70753;47.908;11.274;2023-08-31T11:39:08;3.03;;;1.20;;
81273;SDS011;70753;47.908;11.274;2023-08-31T11:41:35;2.67;;;1.15;;
81273;SDS011;70753;47.908;11.274;2023-08-31T11:44:01;3.40;;;1.45;;
81273;SDS011;70753;47.908;11.274;2023-08-31T11:46:28;3.75;;;1.27;;
81273;SDS011;70753;47.908;11.274;2023-08-31T11:48:54;4.10;;;1.75;;
81273;SDS011;70753;47.908;11.274;2023-08-31T11:51:19;6.20;;;1.50;;
81273;SDS011;70753;47.908;11.274;2023-08-31T11:53:47;3.70;;;1.40;;
81273;SDS011;70753;47.908;11.274;2023-08-31T11:56:14;4.22;;;1.40;;
81273;SDS011;70753;47.908;11.274;2023-08-31T11:58:40;4.32;;;1.58;;
81273;SDS011;70753;47.908;11.274;2023-08-31T12:01:06;4.88;;;1.55;;
81273;SDS011;70753;47.908;11.274;2023-08-31T12:03:41;3.97;;;1.60;;
81273;SDS011;70753;47.908;11.274;2023-08-31T12:06:07;5.40;;;1.73;;
81273;SDS011;70753;47.908;11.274;2023-08-31T12:08:33;5.85;;;1.70;;
81273;SDS011;70753;47.908;11.274;2023-08-31T12:11:01;5.35;;;2.50;;
81273;SDS011;70753;47.908;11.274;2023-08-31T12:13:26;4.97;;;2.03;;
81273;SDS011;70753;47.908;11.274;2023-08-31T12:15:52;5.45;;;1.90;;
81273;SDS011;70753;47.908;11.274;2023-08-31T12:18:18;4.57;;;1.60;;
81273;SDS011;70753;47.908;11.274;2023-08-31T12:20:44;5.25;;;1.67;;
81273;SDS011;70753;47.908;11.274;2023-08-31T12:23:10;3.92;;;1.55;;
81273;SDS011;70753;47.908;11.274;2023-08-31T12:25:35;5.82;;;1.73;;
81273;SDS011;70753;47.908;11.274;2023-08-31T12:28:02;3.00;;;1.30;;
81273;SDS011;70753;47.908;11.274;2023-08-31T12:30:28;4.75;;;1.58;;
81273;SDS011;70753;47.908;11.274;2023-08-31T12:32:54;5.53;;;1.52;;
81273;SDS011;70753;47.908;11.274;2023-08-31T12:35:19;4.75;;;1.63;;
81273;SDS011;70753;47.908;11.274;2023-08-31T12:37:45;6.70;;;2.10;;
81273;SDS011;70753;47.908;11.274;2023-08-31T12:40:10;4.43;;;1.48;;
81273;SDS011;70753;47.908;11.274;2023-08-31T12:42:36;4.30;;;1.40;;
81273;SDS011;70753;47.908;11.274;2023-08-31T12:45:03;4.68;;;1.70;;
81273;SDS011;70753;47.908;11.274;2023-08-31T12:47:29;5.63;;;1.83;;
81273;SDS011;70753;47.908;11.274;2023-08-31T12:49:54;5.30;;;1.60;;
81273;SDS011;70753;47.908;11.274;2023-08-31T12:52:19;7.32;;;1.65;;
81273;SDS011;70753;47.908;11.274;2023-08-31T12:54:45;5.40;;;1.70;;
81273;SDS011;70753;47.908;11.274;2023-08-31T12:57:10;5.70;;;1.58;;
81273;SDS011;70753;47.908;11.274;2023-08-31T12:59:36;5.20;;;1.80;;
81273;SDS011;70753;47.908;11.274;2023-08-31T13:02:03;4.35;;;1.38;;
81273;SDS011;70753;47.908;11.274;2023-08-31T13:04:29;6.90;;;2.45;;
81273;SDS011;70753;47.908;11.274;2023-08-31T13:06:55;4.10;;;1.40;;
81273;SDS011;70753;47.908;11.274;2023-08-31T13:09:21;4.07;;;1.63;;
81273;SDS011;70753;47.908;11.274;2023-08-31T13:11:47;6.07;;;2.00;;
81273;SDS011;70753;47.908;11.274;2023-08-31T13:14:14;4.93;;;1.73;;
81273;SDS011;70753;47.908;11.274;2023-08-31T13:16:40;4.63;;;1.85;;
81273;SDS011;70753;47.908;11.274;2023-08-31T13:19:07;3.20;;;1.45;;
81273;SDS011;70753;47.908;11.274;2023-08-31T13:21:32;6.45;;;1.73;;
81273;SDS011;70753;47.908;11.274;2023-08-31T13:23:58;6.00;;;1.85;;
81273;SDS011;70753;47.908;11.274;2023-08-31T13:26:23;4.80;;;1.73;;
81273;SDS011;70753;47.908;11.274;2023-08-31T13:28:48;4.65;;;1.63;;
81273;SDS011;70753;47.908;11.274;2023-08-31T13:31:14;4.75;;;1.60;;
81273;SDS011;70753;47.908;11.274;2023-08-31T13:33:39;5.00;;;2.00;;
81273;SDS011;70753;47.908;11.274;2023-08-31T13:36:07;4.55;;;1.70;;
81273;SDS011;70753;47.908;11.274;2023-08-31T13:38:32;4.32;;;1.67;;
81273;SDS011;70753;47.908;11.274;2023-08-31T13:40:57;5.45;;;2.05;;
81273;SDS011;70753;47.908;11.274;2023-08-31T13:43:23;5.47;;;1.67;;
81273;SDS011;70753;47.908;11.274;2023-08-31T13:45:49;6.05;;;2.35;;
81273;SDS011;70753;47.908;11.274;2023-08-31T13:48:15;5.65;;;1.52;;
81273;SDS011;70753;47.908;11.274;2023-08-31T13:50:41;5.03;;;1.70;;
81273;SDS011;70753;47.908;11.274;2023-08-31T13:53:08;3.33;;;1.60;;
81273;SDS011;70753;47.908;11.274;2023-08-31T13:55:34;4.82;;;1.90;;
81273;SDS011;70753;47.908;11.274;2023-08-31T13:58:03;5.03;;;1.70;;
81273;SDS011;70753;47.908;11.274;2023-08-31T14:00:29;6.10;;;1.77;;
81273;SDS011;70753;47.908;11.274;2023-08-31T14:02:55;5.63;;;2.10;;
81273;SDS011;70753;47.908;11.274;2023-08-31T14:05:20;4.57;;;1.88;;
81273;SDS011;70753;47.908;11.274;2023-08-31T14:07:46;4.97;;;1.55;;
81273;SDS011;70753;47.908;11.274;2023-08-31T14:10:13;5.57;;;2.50;;
81273;SDS011;70753;47.908;11.274;2023-08-31T14:12:38;4.50;;;1.88;;
81273;SDS011;70753;47.908;11.274;2023-08-31T14:15:05;8.52;;;2.85;;
81273;SDS011;70753;47.908;11.274;2023-08-31T14:17:31;6.30;;;1.98;;
81273;SDS011;70753;47.908;11.274;2023-08-31T14:19:58;5.28;;;1.73;;
81273;SDS011;70753;47.908;11.274;2023-08-31T14:22:24;5.43;;;2.00;;
81273;SDS011;70753;47.908;11.274;2023-08-31T14:24:49;3.50;;;1.33;;
81273;SDS011;70753;47.908;11.274;2023-08-31T14:27:16;5.80;;;2.30;;
81273;SDS011;70753;47.908;11.274;2023-08-31T14:29:42;7.22;;;2.80;;
81273;SDS011;70753;47.908;11.274;2023-08-31T14:32:09;5.30;;;1.92;;
81273;SDS011;70753;47.908;11.274;2023-08-31T14:34:34;5.38;;;1.75;;
81273;SDS011;70753;47.908;11.274;2023-08-31T14:37:00;4.65;;;1.63;;